• Join FlightAware (Why Join?)
  • Login
  • US Flag 
Gobble Gobble! 
10:10PM EST


 

Airport Tracker/Info


-or-


 

Live Flight TrackerFlight Track Log ✈ N333EB ✈ 19-Jul-2013 ✈ KSAT - KETN

Flight Track Log - Related Links

Times and Time Zones

All times are in EDT time to prevent confusion due to time zone crossing. See the N333EB flight status page for this flight to view local times or setup timezone preferences in your user account.

Time Position Orientation Groundspeed Altitude Reporting Facility
EDT Latitude Longitude Course Direction KTS MPH feet Rate Location/Type
08:43PM 29.5242 -98.4567 119° Southeast 156 180 1,600  Level Houston Center
08:44PM 29.4928 -98.3906 119° Southeast 245 282 5,000 2,820 Climbing Houston Center
08:46PM 29.5683 -98.3181 40° Northeast 265 305 8,900 2,640 Climbing Houston Center
08:47PM 29.6514 -98.2961 13° North 306 352 11,400 2,700 Climbing Houston Center
08:48PM 29.7314 -98.3156 348° North 295 339 14,500 2,580 Climbing Houston Center
08:49PM 29.8117 -98.3292 352° North 292 336 16,700 2,220 Climbing Houston Center
08:50PM 29.8997 -98.3444 351° North 296 341 19,200 2,100 Climbing Houston Center
08:51PM 29.9808 -98.3578 352° North 294 338 21,100 1,320 Climbing Houston Center
08:52PM 30.0722 -98.3753 351° North 307 353 22,000 420 Climbing Houston Center
08:53PM 30.1664 -98.3914 352° North 339 390 22,000  Level Houston Center
08:54PM 30.2647 -98.4106 350° North 367 422 22,000  Level Houston Center
08:55PM 30.3639 -98.4283 351° North 373 429 22,000  Level Houston Center
08:56PM 30.4653 -98.4467 351° North 365 420 22,000  Level Houston Center
08:57PM 30.5692 -98.4672 350° North 370 426 22,000  Level Houston Center
08:58PM 30.6900 -98.4889 351° North 370 426 22,000  Level Houston Center
08:59PM 30.7931 -98.5075 351° North 370 426 22,000  Level Houston Center
09:00PM 30.8958 -98.5264 351° North 369 425 22,000  Level Houston Center
09:01PM 30.9992 -98.5456 351° North 369 425 22,000  Level Houston Center
09:02PM 31.1011 -98.5642 351° North 367 422 22,000  Level Houston Center
09:03PM 31.2031 -98.5831 351° North 366 421 22,000  Level Houston Center
09:04PM 31.3067 -98.6019 351° North 369 425 22,000  Level Houston Center
09:05PM 31.4094 -98.6214 351° North 370 426 22,000 -780 Level Houston Center
09:06PM 31.5131 -98.6400 351° North 370 426 20,500 -1,680 Descending Houston Center
09:07PM 31.6128 -98.6581 351° North 361 415 18,600 -1,800 Descending Houston Center
09:08PM 31.7081 -98.6783 350° North 354 407 17,100 -1,560 Descending Fort Worth Center
09:09PM 31.8039 -98.6942 352° North 354 407 15,700 -1,320 Descending Fort Worth Center
09:10PM 31.8872 -98.7150 348° North 349 402 14,500 -1,500 Descending Fort Worth Center
09:11PM 31.9914 -98.7286 354° North 349 402 12,800 -1,560 Descending Fort Worth Center
09:12PM 32.0831 -98.7472 350° North 339 390 11,400 -1,500 Descending Fort Worth Center
09:13PM 32.1683 -98.7633 351° North 321 369 9,800 -1,620 Descending Fort Worth Center